Santo Pipo, Argentina
Current Conditions -  °F | °C
As of 10:00 AM on Monday 22 Dec 2014 (Local Time) from SGEN Reporting Station
Scattered Clouds Scattered Clouds  
Wind Chill: 19°   Ceiling: Unl
Heat Index: 19°   Visibility: 6mi
Dew Point: 15°   Wind: 17mph
Humidity: 78%   Direction: 160°SSE
Pressure: 29.91"   Gusts: NA
Location:  27.13°S, 55.42°W
Report Text: SGEN 221300Z 16015KT 9999 SCT015 19/15 Q1013
Loading
Personal Weather Stations






























Interactive Weather Map New forecast layout! Learn more

10-Day Weather Forecast

Advertisements
Track Severe Weather on mobile